Ledyard, CT

3:17 AM EDT on September 01, 2016 (GMT -0400)
Parsonage Hill | | Change Station

Elev 400 ft 41.46 °N, 72.00 °W | Updated 13 seconds ago

Mostly Cloudy
Mostly Cloudy
71.1 °F
Feels Like 77 °F
N
0.0
Wind Variable Wind from NE
Gusts 0.0 mph

Today
High -- | Low -- °F
--% Chance of Precip.
Yesterday
High -- | Low -- °F
Precip. -- in
Pressure 29.84 in
Visibility 10.0 miles
Clouds Mostly Cloudy 11000 ft
Heat Index 77 °F
Dew Point 54 °F
Humidity 55%
Rainfall 0.00 in
Snow Depth Not available.
6:14 AM 7:20 PM
Waning Crescent, 0% visible
METAR KGON 010656Z AUTO 00000KT 10SM BKN110 24/21 A2984 RMK AO2 SLP103 T02390211
Pressure 29.84 in
Visibility 10.0 miles
Clouds Mostly Cloudy 11000 ft
Heat Index 77 °F
Dew Point 54 °F
Humidity 55%
Rainfall 0.00 in
Snow Depth Not available.
6:14 AM 7:20 PM
Waning Crescent, 0% visible
METAR KGON 010656Z AUTO 00000KT 10SM BKN110 24/21 A2984 RMK AO2 SLP103 T02390211

10-Day Weather Forecast

Almanac

Astronomy

Sep. 01, 2016 Rise Set
Actual Time
Civil Twilight
Nautical Twilight
Astronomical Twilight
Moon
Length of Visible Light
Length of Day
Tomorrow will be .
, % of the Moon is Illuminated

Today's Extremes

State Highs State Lows

Community

WunderPhotos

Upload Photos

1,936,314 photos uploaded!

WunderBlog® & News

Nearby

Air Quality

  Air Quality AQ Index Pollutant
Not available.

Snow Depth

Station Depth Elevation

Earthquake Activity

City Distance Mag. Time & Date
Minimum magnitude displayed is 2.5.

Coastal Water Temperatures

Place Temperature

Stations

Nearby Weather Stations

Station Location Temp. Windchill Dew Point Humidity Wind Precip. Elev Updated Type
                   

Watches & Warnings

There are currently no watches in effect.